Time;durP1;ratioP1;P1;durP2;ratioP2;P2;SDS_P1;SDS_P2;PMS_P1;PMS_P2;Temp;Humidity;BMP_temperature;BMP_pressure;BME280_temperature;BME280_humidity;BME280_pressure;Samples;Min_cycle;Max_cycle;Signal;HPM_P1;HPM_P2
2021/06/24 00:02:14;;;;;;;2.45;0.80;;;;;;;-148.58;100.00;55229.56;5015545;28;20041;-60
2021/06/24 00:04:39;;;;;;;1.73;0.90;;;;;;;-148.58;100.00;55229.56;5015736;28;20029;-62
2021/06/24 00:07:04;;;;;;;1.45;0.65;;;;;;;-148.58;100.00;55229.56;5015375;28;20064;-61
2021/06/24 00:09:30;;;;;;;2.05;0.82;;;;;;;-148.58;100.00;55229.56;5015728;28;20025;-61
2021/06/24 00:11:55;;;;;;;2.55;0.93;;;;;;;-148.58;100.00;55229.56;5015489;28;20053;-61
2021/06/24 00:14:20;;;;;;;1.13;0.60;;;;;;;-148.58;100.00;55229.56;5013514;28;20030;-61
2021/06/24 00:16:46;;;;;;;1.10;0.82;;;;;;;-148.58;100.00;55229.56;5013963;28;20026;-61
2021/06/24 00:19:11;;;;;;;1.73;0.60;;;;;;;-148.58;100.00;55229.56;5015392;28;20030;-61
2021/06/24 00:21:36;;;;;;;2.97;1.05;;;;;;;-148.58;100.00;55229.56;5015234;28;20038;-61
2021/06/24 00:24:01;;;;;;;1.33;0.63;;;;;;;-148.58;100.00;55229.56;5014762;28;20072;-61
2021/06/24 00:26:27;;;;;;;1.92;1.20;;;;;;;-148.58;100.00;55229.56;5015373;28;20044;-61
2021/06/24 00:28:52;;;;;;;1.15;0.70;;;;;;;-148.58;100.00;55229.56;5015081;28;20535;-60
2021/06/24 00:31:17;;;;;;;2.05;0.90;;;;;;;-148.58;100.00;55229.56;5015255;28;20032;-61
2021/06/24 00:33:43;;;;;;;1.05;0.65;;;;;;;-148.58;100.00;55229.56;5015234;28;20409;-61
2021/06/24 00:36:08;;;;;;;1.10;0.73;;;;;;;-148.58;100.00;55229.56;5015054;28;20086;-60
2021/06/24 00:38:33;;;;;;;1.85;0.60;;;;;;;-148.58;100.00;55229.56;5014887;28;20093;-60
2021/06/24 00:40:59;;;;;;;0.70;0.70;;;;;;;-148.58;100.00;55229.56;5014810;28;20018;-61
2021/06/24 00:43:26;;;;;;;1.33;0.70;;;;;;;-148.58;100.00;55229.56;5015063;28;20026;-60
2021/06/24 00:45:52;;;;;;;1.67;0.57;;;;;;;-148.58;100.00;55229.56;5014738;28;20022;-60
2021/06/24 00:48:17;;;;;;;0.85;0.60;;;;;;;-148.58;100.00;55229.56;5014721;28;20105;-61
2021/06/24 00:50:44;;;;;;;1.60;0.75;;;;;;;-148.58;100.00;55229.56;5013069;28;20032;-61
2021/06/24 00:53:10;;;;;;;2.15;0.93;;;;;;;-148.58;100.00;55229.56;5015143;28;20053;-60
2021/06/24 00:55:45;;;;;;;1.13;0.82;;;;;;;-148.58;100.00;55229.56;5014695;28;20040;-60
2021/06/24 00:58:16;;;;;;;2.15;0.93;;;;;;;-148.58;100.00;55229.56;5014671;28;20024;-60
2021/06/24 01:00:43;;;;;;;1.50;0.52;;;;;;;-148.58;100.00;55229.56;5014709;28;20033;-61
2021/06/24 01:03:09;;;;;;;1.05;0.70;;;;;;;-148.58;100.00;55229.56;5014408;28;20042;-60
2021/06/24 01:05:37;;;;;;;0.60;0.50;;;;;;;-148.58;100.00;55229.56;5014561;28;20469;-60
2021/06/24 01:08:07;;;;;;;1.58;0.70;;;;;;;-148.58;100.00;55229.56;5014638;28;20025;-61
2021/06/24 01:10:33;;;;;;;1.38;0.57;;;;;;;-148.58;100.00;55229.56;5014620;28;20033;-61
2021/06/24 01:12:58;;;;;;;1.65;0.40;;;;;;;-148.58;100.00;55229.56;4996633;28;20060;-60
2021/06/24 01:15:25;;;;;;;0.80;0.68;;;;;;;-148.58;100.00;55229.56;5014444;28;20047;-60
2021/06/24 01:17:50;;;;;;;1.73;0.90;;;;;;;-148.58;100.00;55229.56;5014071;28;20080;-61
2021/06/24 01:20:21;;;;;;;2.05;0.40;;;;;;;-148.58;100.00;55229.56;5013538;28;20053;-60
2021/06/24 01:22:47;;;;;;;1.80;0.60;;;;;;;-148.58;100.00;55229.56;5013586;28;20370;-60
2021/06/24 01:25:13;;;;;;;1.27;0.60;;;;;;;-148.58;100.00;55229.56;5014161;28;20029;-60
2021/06/24 01:27:38;;;;;;;1.73;0.68;;;;;;;-148.58;100.00;55229.56;5014194;28;20030;-60
2021/06/24 01:30:04;;;;;;;1.40;0.50;;;;;;;-148.58;100.00;55229.56;5014023;28;20109;-60
2021/06/24 01:32:30;;;;;;;1.38;0.70;;;;;;;-148.58;100.00;55229.56;5013025;28;20049;-60
2021/06/24 01:34:56;;;;;;;1.38;0.57;;;;;;;-148.58;100.00;55229.56;5013818;28;20484;-60
2021/06/24 01:37:21;;;;;;;0.93;0.47;;;;;;;-148.58;100.00;55229.56;5013965;28;20144;-60
2021/06/24 01:39:47;;;;;;;1.63;0.60;;;;;;;-148.58;100.00;55229.56;5014117;28;20026;-61
2021/06/24 01:42:16;;;;;;;1.55;0.75;;;;;;;-148.58;100.00;55229.56;5013959;28;20439;-61
2021/06/24 01:44:42;;;;;;;1.10;0.60;;;;;;;-148.58;100.00;55229.56;5013855;28;20057;-60
2021/06/24 01:47:12;;;;;;;1.55;0.63;;;;;;;-148.58;100.00;55229.56;5014188;28;20026;-60
2021/06/24 01:49:38;;;;;;;0.98;0.68;;;;;;;-148.58;100.00;55229.56;5013199;28;20150;-60
2021/06/24 01:52:03;;;;;;;0.82;0.50;;;;;;;-148.58;100.00;55229.56;5012222;28;20113;-60
2021/06/24 01:54:28;;;;;;;2.50;0.63;;;;;;;-148.58;100.00;55229.56;5012674;28;20105;-60
2021/06/24 01:56:54;;;;;;;0.90;0.70;;;;;;;-148.58;100.00;55229.56;5013548;28;20125;-60
2021/06/24 01:59:19;;;;;;;1.08;0.68;;;;;;;-148.58;100.00;55229.56;5013613;28;20410;-60
2021/06/24 02:01:44;;;;;;;0.70;0.60;;;;;;;-148.58;100.00;55229.56;5010118;28;20065;-61
2021/06/24 02:04:10;;;;;;;0.43;0.30;;;;;;;-148.58;100.00;55229.56;5013670;28;20068;-61
2021/06/24 02:06:36;;;;;;;1.70;0.50;;;;;;;-148.58;100.00;55229.56;5013442;28;20026;-60
2021/06/24 02:09:01;;;;;;;1.85;0.40;;;;;;;-148.58;100.00;55229.56;5013378;28;20093;-61
2021/06/24 02:11:26;;;;;;;1.02;0.43;;;;;;;-148.58;100.00;55229.56;5013312;28;20121;-60
2021/06/24 02:13:52;;;;;;;1.85;0.68;;;;;;;-148.58;100.00;55229.56;5013183;28;20037;-61
2021/06/24 02:16:18;;;;;;;0.80;0.60;;;;;;;-148.58;100.00;55229.56;5013232;28;20025;-61
2021/06/24 02:18:43;;;;;;;2.47;1.08;;;;;;;-148.58;100.00;55229.56;5012939;28;20100;-61
2021/06/24 02:21:08;;;;;;;1.25;0.45;;;;;;;-148.58;100.00;55229.56;5012944;28;20056;-61
2021/06/24 02:23:34;;;;;;;2.03;0.70;;;;;;;-148.58;100.00;55229.56;5012961;28;20029;-61
2021/06/24 02:25:59;;;;;;;0.65;0.50;;;;;;;-148.58;100.00;55229.56;5012995;28;20116;-61
2021/06/24 02:28:24;;;;;;;0.75;0.50;;;;;;;-148.58;100.00;55229.56;5013055;28;20022;-61
2021/06/24 02:30:49;;;;;;;0.82;0.50;;;;;;;-148.58;100.00;55229.56;5012911;28;20030;-61
2021/06/24 02:33:16;;;;;;;1.02;0.50;;;;;;;-148.58;100.00;55229.56;5013039;28;20048;-61
2021/06/24 02:35:47;;;;;;;0.77;0.60;;;;;;;-148.58;100.00;55229.56;5012854;28;20088;-61
2021/06/24 02:38:13;;;;;;;0.65;0.40;;;;;;;-148.58;100.00;55229.56;5012924;28;20022;-61
2021/06/24 02:40:38;;;;;;;1.42;0.40;;;;;;;-148.58;100.00;55229.56;5012957;28;20026;-62
2021/06/24 02:43:04;;;;;;;0.80;0.45;;;;;;;-148.58;100.00;55229.56;5012725;28;20026;-61
2021/06/24 02:45:30;;;;;;;0.98;0.55;;;;;;;-148.58;100.00;55229.56;5012815;28;20108;-61
2021/06/24 02:47:55;;;;;;;1.25;0.55;;;;;;;-148.58;100.00;55229.56;5012540;28;20033;-61
2021/06/24 02:50:21;;;;;;;1.02;0.50;;;;;;;-148.58;100.00;55229.56;5012526;28;20050;-61
2021/06/24 02:52:46;;;;;;;2.38;0.60;;;;;;;-148.58;100.00;55229.56;5012585;28;20091;-61
2021/06/24 02:55:12;;;;;;;0.70;0.50;;;;;;;-148.58;100.00;55229.56;5012715;28;20076;-61
2021/06/24 02:57:37;;;;;;;2.30;0.63;;;;;;;-148.58;100.00;55229.56;5010584;28;20024;-61
2021/06/24 03:00:08;;;;;;;1.20;0.80;;;;;;;-148.58;100.00;55229.56;5012515;28;20021;-62
2021/06/24 03:02:33;;;;;;;1.10;0.57;;;;;;;-148.58;100.00;55229.56;5012256;28;20085;-61
2021/06/24 03:04:58;;;;;;;1.58;0.82;;;;;;;-148.58;100.00;55229.56;5012413;28;20049;-61
2021/06/24 03:07:24;;;;;;;1.08;0.52;;;;;;;-148.58;100.00;55229.56;5012495;28;20373;-61
2021/06/24 03:09:50;;;;;;;1.95;0.52;;;;;;;-148.58;100.00;55229.56;5012639;28;20079;-61
2021/06/24 03:12:15;;;;;;;1.25;0.63;;;;;;;-148.58;100.00;55229.56;5011351;28;20042;-60
2021/06/24 03:14:41;;;;;;;1.05;0.70;;;;;;;-148.58;100.00;55229.56;5011087;28;20080;-61
2021/06/24 03:17:06;;;;;;;1.52;0.38;;;;;;;-148.58;100.00;55229.56;5012326;28;20043;-61
2021/06/24 03:19:31;;;;;;;1.75;0.45;;;;;;;-148.58;100.00;55229.56;5011281;28;20068;-61
2021/06/24 03:21:56;;;;;;;0.85;0.38;;;;;;;-148.58;100.00;55229.56;5012312;28;20037;-60
2021/06/24 03:24:22;;;;;;;1.10;0.40;;;;;;;-148.58;100.00;55229.56;5012310;28;20461;-61
2021/06/24 03:26:47;;;;;;;0.82;0.30;;;;;;;-148.58;100.00;55229.56;5010146;28;20025;-61
2021/06/24 03:29:12;;;;;;;0.98;0.50;;;;;;;-148.58;100.00;55229.56;5012352;28;20491;-60
2021/06/24 03:31:38;;;;;;;2.83;0.60;;;;;;;-148.58;100.00;55229.56;5011693;28;20029;-61
2021/06/24 03:34:03;;;;;;;1.25;0.30;;;;;;;-148.58;100.00;55229.56;5010900;28;20499;-61
2021/06/24 03:36:29;;;;;;;0.85;0.38;;;;;;;-148.58;100.00;55229.56;5012356;28;20465;-61
2021/06/24 03:38:54;;;;;;;1.50;0.50;;;;;;;-148.58;100.00;55229.56;5012198;28;20358;-60
2021/06/24 03:41:25;;;;;;;1.20;0.35;;;;;;;-148.58;100.00;55229.56;5012261;28;20049;-61
2021/06/24 03:43:53;;;;;;;0.80;0.40;;;;;;;-148.58;100.00;55229.56;5011995;28;20018;-61
2021/06/24 03:46:18;;;;;;;1.98;0.50;;;;;;;-148.58;100.00;55229.56;5012210;28;20152;-61
2021/06/24 03:48:44;;;;;;;2.13;0.40;;;;;;;-148.58;100.00;55229.56;5011857;28;20108;-60
2021/06/24 03:51:09;;;;;;;1.70;0.70;;;;;;;-148.58;100.00;55229.56;5012112;28;20112;-60
2021/06/24 03:53:35;;;;;;;0.60;0.30;;;;;;;-148.58;100.00;55229.56;5012264;28;20511;-60
2021/06/24 03:56:01;;;;;;;0.77;0.30;;;;;;;-148.58;100.00;55229.56;5011919;28;20068;-61
2021/06/24 03:58:26;;;;;;;0.65;0.50;;;;;;;-148.58;100.00;55229.56;5012165;28;20026;-61
2021/06/24 04:00:51;;;;;;;1.73;0.30;;;;;;;-148.58;100.00;55229.56;5011818;28;20021;-60
2021/06/24 04:03:17;;;;;;;1.27;0.45;;;;;;;-148.58;100.00;55229.56;5011371;28;20046;-60
2021/06/24 04:05:43;;;;;;;2.17;0.73;;;;;;;-148.58;100.00;55229.56;5011557;28;20060;-60
2021/06/24 04:08:09;;;;;;;2.13;0.50;;;;;;;-148.58;100.00;55229.56;5011801;28;20022;-61
2021/06/24 04:10:37;;;;;;;0.73;0.30;;;;;;;-148.58;100.00;55229.56;5012125;28;20116;-60
2021/06/24 04:13:03;;;;;;;1.02;0.20;;;;;;;-148.58;100.00;55229.56;5012131;28;20040;-60
2021/06/24 04:15:29;;;;;;;1.02;0.47;;;;;;;-148.58;100.00;55229.56;5015589;28;20548;-60
2021/06/24 04:17:55;;;;;;;0.85;0.25;;;;;;;-148.58;100.00;55229.56;5015055;28;20437;-61
2021/06/24 04:20:20;;;;;;;1.23;0.38;;;;;;;-148.58;100.00;55229.56;5015322;28;20080;-61
2021/06/24 04:22:46;;;;;;;1.40;0.60;;;;;;;-148.58;100.00;55229.56;5015303;28;20026;-60
2021/06/24 04:25:14;;;;;;;0.47;0.20;;;;;;;-148.58;100.00;55229.56;5015357;28;20026;-60
2021/06/24 04:27:40;;;;;;;0.88;0.38;;;;;;;-148.58;100.00;55229.56;5015132;28;20022;-61
2021/06/24 04:30:08;;;;;;;1.27;0.50;;;;;;;-148.58;100.00;55229.56;5015118;28;20029;-61
2021/06/24 04:32:33;;;;;;;0.80;0.30;;;;;;;-148.58;100.00;55229.56;5015337;28;20045;-60
2021/06/24 04:34:58;;;;;;;2.13;0.40;;;;;;;-148.58;100.00;55229.56;5015244;28;20030;-60
2021/06/24 04:37:24;;;;;;;0.73;0.45;;;;;;;-148.58;100.00;55229.56;5015160;28;20076;-60
2021/06/24 04:39:49;;;;;;;1.55;0.52;;;;;;;-148.58;100.00;55229.56;5015128;28;20416;-61
2021/06/24 04:42:15;;;;;;;1.77;0.57;;;;;;;-148.58;100.00;55229.56;5015091;28;20384;-61
2021/06/24 04:44:41;;;;;;;1.45;0.82;;;;;;;-148.58;100.00;55229.56;5014969;28;20045;-60
2021/06/24 04:47:06;;;;;;;1.02;0.30;;;;;;;-148.58;100.00;55229.56;5014802;28;20465;-60
2021/06/24 04:49:32;;;;;;;1.20;0.40;;;;;;;-148.58;100.00;55229.56;5014916;28;20021;-60
2021/06/24 04:51:57;;;;;;;1.65;0.60;;;;;;;-148.58;100.00;55229.56;5014710;28;20384;-60
2021/06/24 04:54:23;;;;;;;1.52;0.60;;;;;;;-148.58;100.00;55229.56;5014840;28;20026;-60
2021/06/24 04:56:48;;;;;;;1.45;0.55;;;;;;;-148.58;100.00;55229.56;5014416;28;20036;-60
2021/06/24 04:59:13;;;;;;;2.65;0.55;;;;;;;-148.58;100.00;55229.56;5014740;28;20041;-61
2021/06/24 05:01:39;;;;;;;0.82;0.40;;;;;;;-148.58;100.00;55229.56;5014362;28;20037;-61
2021/06/24 05:04:04;;;;;;;0.73;0.30;;;;;;;-148.58;100.00;55229.56;5014800;28;20100;-60
2021/06/24 05:06:30;;;;;;;1.67;0.50;;;;;;;-148.58;100.00;55229.56;5014824;28;20026;-60
2021/06/24 05:08:55;;;;;;;2.20;0.50;;;;;;;-148.58;100.00;55229.56;5014424;28;20370;-61
2021/06/24 05:11:20;;;;;;;1.23;0.40;;;;;;;-148.58;100.00;55229.56;5014460;28;20055;-60
2021/06/24 05:13:45;;;;;;;1.25;0.38;;;;;;;-148.58;100.00;55229.56;5014268;28;20224;-60
2021/06/24 05:16:11;;;;;;;1.90;0.50;;;;;;;-148.58;100.00;55229.56;5014352;28;20068;-60
2021/06/24 05:18:37;;;;;;;1.25;0.50;;;;;;;-148.58;100.00;55229.56;5014082;28;20022;-60
2021/06/24 05:21:03;;;;;;;0.77;0.30;;;;;;;-148.58;100.00;55229.56;5014177;28;20121;-60
2021/06/24 05:23:28;;;;;;;1.40;0.40;;;;;;;-148.58;100.00;55229.56;5014161;28;20030;-60
2021/06/24 05:25:54;;;;;;;1.02;0.38;;;;;;;-148.58;100.00;55229.56;5013079;28;20026;-61
2021/06/24 05:28:19;;;;;;;1.52;0.20;;;;;;;-148.58;100.00;55229.56;5014109;28;20050;-60
2021/06/24 05:30:46;;;;;;;0.70;0.25;;;;;;;-148.58;100.00;55229.56;5012217;28;20029;-60
2021/06/24 05:33:12;;;;;;;1.27;0.35;;;;;;;-148.58;100.00;55229.56;5014125;28;20049;-60
2021/06/24 05:35:38;;;;;;;0.93;0.30;;;;;;;-148.58;100.00;55229.56;5014054;28;20409;-61
2021/06/24 05:38:03;;;;;;;0.38;0.38;;;;;;;-148.58;100.00;55229.56;5013804;28;20075;-60
2021/06/24 05:40:29;;;;;;;0.80;0.40;;;;;;;-148.58;100.00;55229.56;5014018;28;20104;-60
2021/06/24 05:42:54;;;;;;;1.42;0.32;;;;;;;-148.58;100.00;55229.56;5013743;28;20049;-61
2021/06/24 05:45:26;;;;;;;1.60;0.60;;;;;;;-148.58;100.00;55229.56;4996574;28;20026;-60
2021/06/24 05:47:52;;;;;;;1.00;0.38;;;;;;;-148.58;100.00;55229.56;5012923;28;20053;-60
2021/06/24 05:50:17;;;;;;;2.75;0.47;;;;;;;-148.58;100.00;55229.56;5012355;28;20096;-60
2021/06/24 05:52:42;;;;;;;1.15;0.30;;;;;;;-148.58;100.00;55229.56;5013645;28;20500;-61
2021/06/24 05:55:08;;;;;;;1.27;0.40;;;;;;;-148.58;100.00;55229.56;5013516;28;20057;-60
2021/06/24 05:57:33;;;;;;;2.35;0.90;;;;;;;-148.58;100.00;55229.56;5013694;28;20041;-60
2021/06/24 05:59:59;;;;;;;1.15;0.40;;;;;;;-148.58;100.00;55229.56;5013438;28;20022;-60
2021/06/24 06:02:24;;;;;;;1.10;0.50;;;;;;;-148.58;100.00;55229.56;5013360;28;20053;-60
2021/06/24 06:04:49;;;;;;;1.23;0.40;;;;;;;-148.58;100.00;55229.56;5013226;28;20469;-60
2021/06/24 06:07:15;;;;;;;2.30;0.73;;;;;;;-148.58;100.00;55229.56;5013410;28;20033;-60
2021/06/24 06:09:40;;;;;;;0.90;0.40;;;;;;;-148.58;100.00;55229.56;5013404;28;20045;-61
2021/06/24 06:12:06;;;;;;;2.92;0.57;;;;;;;-148.58;100.00;55229.56;5013357;28;20085;-60
2021/06/24 06:14:32;;;;;;;1.40;0.50;;;;;;;-148.58;100.00;55229.56;5013393;28;20109;-61
2021/06/24 06:16:58;;;;;;;1.75;0.75;;;;;;;-148.58;100.00;55229.56;5013130;28;20105;-60
2021/06/24 06:19:23;;;;;;;1.70;0.40;;;;;;;-148.58;100.00;55229.56;5013086;28;20037;-61
2021/06/24 06:21:48;;;;;;;0.80;0.30;;;;;;;-148.58;100.00;55229.56;5012909;28;20058;-61
2021/06/24 06:24:14;;;;;;;1.75;0.60;;;;;;;-148.58;100.00;55229.56;5013172;28;20030;-60
2021/06/24 06:26:39;;;;;;;2.03;0.65;;;;;;;-148.58;100.00;55229.56;5013026;28;20076;-60
2021/06/24 06:29:04;;;;;;;2.08;0.50;;;;;;;-148.58;100.00;55229.56;5012994;28;20034;-61
2021/06/24 06:31:32;;;;;;;3.05;0.50;;;;;;;-148.58;100.00;55229.56;5013050;28;20026;-61
2021/06/24 06:33:58;;;;;;;2.60;0.70;;;;;;;-148.58;100.00;55229.56;5012053;28;20076;-60
2021/06/24 06:36:23;;;;;;;1.13;0.32;;;;;;;-148.58;100.00;55229.56;5011424;28;20026;-60
2021/06/24 06:38:48;;;;;;;1.05;0.30;;;;;;;-148.58;100.00;55229.56;5011986;28;20732;-61
2021/06/24 06:41:13;;;;;;;2.00;0.50;;;;;;;-148.58;100.00;55229.56;5012927;28;20465;-60
2021/06/24 06:43:39;;;;;;;0.80;0.47;;;;;;;-148.58;100.00;55229.56;5012931;28;20030;-60
2021/06/24 06:46:04;;;;;;;1.75;0.47;;;;;;;-148.58;100.00;55229.56;5012687;28;20071;-60
2021/06/24 06:48:30;;;;;;;1.42;0.25;;;;;;;-148.58;100.00;55229.56;5012252;28;20080;-61
2021/06/24 06:50:56;;;;;;;2.28;0.60;;;;;;;-148.58;100.00;55229.56;4995169;28;20033;-60
2021/06/24 06:53:22;;;;;;;1.38;0.43;;;;;;;-148.58;100.00;55229.56;5012746;28;20026;-60
2021/06/24 06:55:47;;;;;;;1.73;0.57;;;;;;;-148.58;100.00;55229.56;5012598;28;20022;-60
2021/06/24 06:58:13;;;;;;;3.22;0.45;;;;;;;-148.58;100.00;55229.56;5013711;28;20025;-60
2021/06/24 07:00:39;;;;;;;1.77;0.60;;;;;;;-148.58;100.00;55229.56;5013740;28;20018;-59
2021/06/24 07:03:04;;;;;;;2.75;0.50;;;;;;;-148.58;100.00;55229.56;5007536;28;20050;-59
2021/06/24 07:05:30;;;;;;;2.83;0.68;;;;;;;-148.58;100.00;55229.56;4993097;28;20491;-59
2021/06/24 07:07:55;;;;;;;2.75;0.80;;;;;;;-148.58;100.00;55229.56;4992849;28;20488;-59
2021/06/24 07:10:21;;;;;;;2.00;0.68;;;;;;;-148.58;100.00;55229.56;4993031;28;20097;-60
2021/06/24 07:12:47;;;;;;;2.90;0.47;;;;;;;-148.58;100.00;55229.56;4992700;28;20030;-59
2021/06/24 07:15:13;;;;;;;1.27;0.60;;;;;;;-148.58;100.00;55229.56;4992994;28;20473;-60
2021/06/24 07:17:39;;;;;;;2.35;0.80;;;;;;;-148.58;100.00;55229.56;4992443;28;20026;-60
2021/06/24 07:20:05;;;;;;;2.25;0.40;;;;;;;-148.58;100.00;55229.56;4992546;28;20036;-59
2021/06/24 07:22:30;;;;;;;1.25;0.60;;;;;;;-148.58;100.00;55229.56;4991666;28;20038;-57
2021/06/24 07:24:56;;;;;;;1.33;0.70;;;;;;;-148.58;100.00;55229.56;4991380;28;20273;-57
2021/06/24 07:27:21;;;;;;;2.40;0.50;;;;;;;-148.58;100.00;55229.56;4991431;28;20410;-58
2021/06/24 07:29:46;;;;;;;1.85;0.50;;;;;;;-148.58;100.00;55229.56;4991515;28;20026;-57
2021/06/24 07:32:12;;;;;;;3.10;0.80;;;;;;;-148.58;100.00;55229.56;4991903;28;20019;-58
2021/06/24 07:34:37;;;;;;;0.85;0.60;;;;;;;-148.58;100.00;55229.56;4990865;28;21041;-60
2021/06/24 07:37:03;;;;;;;1.70;0.65;;;;;;;-148.58;100.00;55229.56;4984355;28;20448;-59
2021/06/24 07:39:28;;;;;;;1.27;0.40;;;;;;;-148.58;100.00;55229.56;4973259;28;20110;-60
2021/06/24 07:41:53;;;;;;;1.17;0.45;;;;;;;-148.58;100.00;55229.56;4980535;28;20591;-59
2021/06/24 07:44:19;;;;;;;0.90;0.40;;;;;;;-148.58;100.00;55229.56;4973154;28;20466;-59
2021/06/24 07:46:45;;;;;;;1.25;0.47;;;;;;;-148.58;100.00;55229.56;4972828;28;20042;-59
2021/06/24 07:49:10;;;;;;;0.45;0.20;;;;;;;-148.58;100.00;55229.56;4991188;28;20029;-60
2021/06/24 07:51:35;;;;;;;1.20;0.50;;;;;;;-148.58;100.00;55229.56;4996268;28;20381;-60
2021/06/24 07:54:01;;;;;;;1.63;0.75;;;;;;;-148.58;100.00;55229.56;4996466;28;20026;-60
2021/06/24 07:56:26;;;;;;;0.75;0.25;;;;;;;-148.58;100.00;55229.56;4996414;28;20034;-60
2021/06/24 07:58:53;;;;;;;2.00;0.50;;;;;;;-148.58;100.00;55229.56;4995243;28;20050;-60
2021/06/24 08:01:18;;;;;;;1.75;0.60;;;;;;;-148.58;100.00;55229.56;4996202;28;20031;-60
2021/06/24 08:03:44;;;;;;;2.33;0.88;;;;;;;-148.58;100.00;55229.56;5012848;28;20056;-60
2021/06/24 08:06:09;;;;;;;2.88;0.80;;;;;;;-148.58;100.00;55229.56;5016191;28;20049;-60
2021/06/24 08:08:34;;;;;;;2.42;0.93;;;;;;;-148.58;100.00;55229.56;5016553;28;20028;-60
2021/06/24 08:11:00;;;;;;;2.60;0.40;;;;;;;-148.58;100.00;55229.56;5016155;28;20487;-60
2021/06/24 08:13:27;;;;;;;1.90;0.70;;;;;;;-148.58;100.00;55229.56;5016008;28;20412;-61
2021/06/24 08:15:55;;;;;;;0.82;0.30;;;;;;;-148.58;100.00;55229.56;5016019;28;20477;-61
2021/06/24 08:18:21;;;;;;;1.58;0.47;;;;;;;-148.58;100.00;55229.56;5015876;28;20370;-62
2021/06/24 08:20:47;;;;;;;1.23;0.40;;;;;;;-148.58;100.00;55229.56;5016310;28;20034;-61
2021/06/24 08:23:14;;;;;;;1.65;0.52;;;;;;;-148.58;100.00;55229.56;5015980;28;20021;-61
2021/06/24 08:25:39;;;;;;;2.13;0.52;;;;;;;-148.58;100.00;55229.56;5009474;28;20058;-61
2021/06/24 08:28:08;;;;;;;1.48;0.63;;;;;;;-148.58;100.00;55229.56;5004086;28;20029;-61
2021/06/24 08:30:37;;;;;;;2.53;0.47;;;;;;;-148.58;100.00;55229.56;5016020;28;20079;-61
2021/06/24 08:33:03;;;;;;;2.22;0.52;;;;;;;-148.58;100.00;55229.56;5016258;28;20021;-61
2021/06/24 08:35:28;;;;;;;1.02;0.35;;;;;;;-148.58;100.00;55229.56;5016165;28;20048;-61
2021/06/24 08:37:54;;;;;;;1.80;0.40;;;;;;;-148.58;100.00;55229.56;5015688;28;20026;-61
2021/06/24 08:40:19;;;;;;;0.68;0.35;;;;;;;-148.58;100.00;55229.56;5014912;28;20025;-62
2021/06/24 08:42:46;;;;;;;1.35;0.52;;;;;;;-148.58;100.00;55229.56;5014076;28;20029;-62
2021/06/24 08:45:12;;;;;;;2.90;0.95;;;;;;;-148.58;100.00;55229.56;5012778;28;20037;-61
2021/06/24 08:47:45;;;;;;;2.03;0.52;;;;;;;-148.58;100.00;55229.56;5014537;28;20362;-61
2021/06/24 08:50:11;;;;;;;3.13;0.70;;;;;;;-148.58;100.00;55229.56;5014539;28;20061;-60
2021/06/24 08:52:37;;;;;;;2.22;0.70;;;;;;;-148.58;100.00;55229.56;5014253;28;20030;-60
2021/06/24 08:55:03;;;;;;;0.88;0.32;;;;;;;-148.58;100.00;55229.56;5013543;28;20030;-61
2021/06/24 08:57:30;;;;;;;3.28;0.70;;;;;;;-148.58;100.00;55229.56;5014492;28;20022;-59
2021/06/24 08:59:58;;;;;;;1.38;0.63;;;;;;;-148.58;100.00;55229.56;5013655;28;20160;-59
2021/06/24 09:02:41;;;;;;;2.15;0.63;;;;;;;-148.58;100.00;55229.56;5013004;28;20046;-59
2021/06/24 09:05:07;;;;;;;1.67;0.47;;;;;;;-148.58;100.00;55229.56;4995109;28;20034;-58
2021/06/24 09:07:46;;;;;;;2.88;0.90;;;;;;;-148.58;100.00;55229.56;4995132;28;20034;-59
2021/06/24 09:10:12;;;;;;;4.18;0.80;;;;;;;-148.58;100.00;55229.56;5014941;28;20032;-58
2021/06/24 09:12:52;;;;;;;2.88;1.08;;;;;;;-148.58;100.00;55229.56;5023020;28;20025;-59
2021/06/24 09:15:18;;;;;;;2.17;0.73;;;;;;;-148.58;100.00;55229.56;5023749;28;20100;-60
2021/06/24 09:17:45;;;;;;;2.53;0.70;;;;;;;-148.58;100.00;55229.56;5014514;28;20309;-59
2021/06/24 09:20:19;;;;;;;2.45;0.70;;;;;;;-148.58;100.00;55229.56;5013629;28;20037;-59
2021/06/24 09:23:06;;;;;;;3.75;0.50;;;;;;;-148.58;100.00;55229.56;5013864;28;20030;-59
2021/06/24 09:25:32;;;;;;;3.13;0.75;;;;;;;-148.58;100.00;55229.56;5014052;28;20473;-59
2021/06/24 09:27:57;;;;;;;2.25;0.77;;;;;;;-148.58;100.00;55229.56;5013512;28;20052;-59
2021/06/24 09:30:30;;;;;;;2.75;0.82;;;;;;;-148.58;100.00;55229.56;5013922;28;20018;-59
2021/06/24 09:32:56;;;;;;;2.08;0.80;;;;;;;-148.58;100.00;55229.56;5013936;28;20373;-61
2021/06/24 09:35:27;;;;;;;2.03;0.57;;;;;;;-148.58;100.00;55229.56;5013803;28;20037;-60
2021/06/24 09:38:00;;;;;;;3.53;0.90;;;;;;;-148.58;100.00;55229.56;5013397;28;20068;-60
2021/06/24 09:40:57;;;;;;;2.33;0.68;;;;;;;-148.58;100.00;55229.56;5013631;28;20041;-60
2021/06/24 09:43:23;;;;;;;1.48;0.60;;;;;;;-148.58;100.00;55229.56;4971998;28;20047;-59
2021/06/24 09:46:19;;;;;;;1.17;0.43;;;;;;;-148.58;100.00;55229.56;4970402;28;20040;-60
2021/06/24 09:48:51;;;;;;;2.25;0.80;;;;;;;-148.58;100.00;55229.56;4970079;28;20031;-60
2021/06/24 09:51:30;;;;;;;2.45;0.68;;;;;;;-148.58;100.00;55229.56;4967161;28;20094;-60
2021/06/24 09:53:58;;;;;;;1.77;0.70;;;;;;;-148.58;100.00;55229.56;4961433;28;20518;-60
2021/06/24 09:56:32;;;;;;;1.92;0.40;;;;;;;-148.58;100.00;55229.56;4971360;28;20030;-60
2021/06/24 09:59:03;;;;;;;1.25;0.50;;;;;;;-148.58;100.00;55229.56;4971805;28;20347;-61
2021/06/24 10:01:43;;;;;;;2.55;0.43;;;;;;;-148.58;100.00;55229.56;4971324;28;20042;-60
2021/06/24 10:04:24;;;;;;;3.45;0.88;;;;;;;-148.58;100.00;55229.56;4972077;28;20133;-61
2021/06/24 10:06:52;;;;;;;0.55;0.28;;;;;;;-148.58;100.00;55229.56;4971586;28;20031;-60
2021/06/24 10:09:19;;;;;;;4.57;0.88;;;;;;;-148.58;100.00;55229.56;4971667;28;20075;-60
2021/06/24 10:11:45;;;;;;;2.75;1.05;;;;;;;-148.58;100.00;55229.56;4969312;28;20034;-60
2021/06/24 10:14:11;;;;;;;2.65;0.60;;;;;;;-148.58;100.00;55229.56;4971374;28;20039;-60
2021/06/24 10:16:37;;;;;;;1.63;0.43;;;;;;;-148.58;100.00;55229.56;4971603;28;20586;-60
2021/06/24 10:19:04;;;;;;;3.38;0.60;;;;;;;-148.58;100.00;55229.56;4979494;28;20037;-60
2021/06/24 10:21:34;;;;;;;2.88;0.70;;;;;;;-148.58;100.00;55229.56;5012926;28;20030;-60
2021/06/24 10:24:02;;;;;;;2.50;0.75;;;;;;;-148.58;100.00;55229.56;5012558;28;20029;-60
2021/06/24 10:26:30;;;;;;;1.60;0.70;;;;;;;-148.58;100.00;55229.56;5013004;28;20041;-60
2021/06/24 10:29:37;;;;;;;1.00;0.30;;;;;;;-148.58;100.00;55229.56;5011271;28;20060;-61
2021/06/24 10:32:21;;;;;;;1.52;0.70;;;;;;;-148.58;100.00;55229.56;4952058;29;20047;-61
2021/06/24 10:34:48;;;;;;;1.45;0.63;;;;;;;-148.58;100.00;55229.56;4955374;28;20493;-61
2021/06/24 10:37:16;;;;;;;2.03;0.60;;;;;;;-148.58;100.00;55229.56;4969752;28;20461;-61
2021/06/24 10:39:42;;;;;;;1.60;0.63;;;;;;;-148.58;100.00;55229.56;4968508;28;20029;-61
2021/06/24 10:42:15;;;;;;;1.73;0.50;;;;;;;-148.58;100.00;55229.56;4970714;28;20046;-61
2021/06/24 10:44:59;;;;;;;1.48;0.30;;;;;;;-148.58;100.00;55229.56;4987452;28;20034;-60
2021/06/24 10:47:29;;;;;;;1.10;0.40;;;;;;;-148.58;100.00;55229.56;4971154;28;20168;-60
2021/06/24 10:50:27;;;;;;;2.03;0.55;;;;;;;-148.58;100.00;55229.56;4970628;28;20027;-65
2021/06/24 10:52:53;;;;;;;1.35;0.50;;;;;;;-148.58;100.00;55229.56;4971001;28;20555;-63
2021/06/24 10:55:30;;;;;;;1.77;0.47;;;;;;;-148.58;100.00;55229.56;4971228;28;20206;-61
2021/06/24 10:57:56;;;;;;;2.50;0.47;;;;;;;-148.58;100.00;55229.56;4971181;28;20106;-60
2021/06/24 11:00:45;;;;;;;1.45;0.57;;;;;;;-148.58;100.00;55229.56;4970928;28;20421;-61
2021/06/24 11:03:15;;;;;;;1.58;0.73;;;;;;;-148.58;100.00;55229.56;4971045;28;20051;-61
2021/06/24 11:05:45;;;;;;;3.28;0.95;;;;;;;-148.58;100.00;55229.56;4970716;28;20118;-61
2021/06/24 11:08:11;;;;;;;1.58;0.63;;;;;;;-148.58;100.00;55229.56;5003544;28;20164;-62
2021/06/24 11:10:56;;;;;;;1.27;0.52;;;;;;;-148.58;100.00;55229.56;5012737;28;20117;-62